Scroll down
FLIGHT INFORMATION
Delta Air Lines

DAL322

At Arrival Gate

KMSP
 LOWW
DATE: 2020-05-30
GATE:  -
GATE DEPARTURE: 21:37
TAKEOFF: 21:53
DATE: 2020-05-31
GATE:  -
LANDING: 06:25
GATE ARRIVAL: 06:33
FLIGHT DATA
Crew: 
Speed: 
521 kts
Altitude: 
37,031 ft
Stage Length: 
4,117.9 nm
Block Time: 
8.9 hrs
Flight Time: 
8.6 hrs
Fuel Used: 
193,842 lb
Cleared Route: KMSP SSM DASUG YVO VBS BAREE ALLRY 5150N 5140N 5230N 5220N LIMRI XETBO EVRIN NEKAP LAZTU ABDUK NUMPO PUPJO INLAK KONAN KOK MATUG GUBAX BOREP ENITA ETVIS ABUDO BUDEX LOWW
TRACK DATA
50,000 ft 1,000 kts
AIRCRAFT INFO AND CUMULATIVE STATS
Aircraft Type: 
B744
Registration: 
SELCAL: 
HLDQ
MSN/LN: 
33001 / 1297
Operator: 
Total Flights: 
5
Total Block Time: 
45.5 hrs
Total Flight Time: 
44 hrs
Total Fuel Used: 
707,190 lb
DATALINK LOG | Newest first | Current as of: 2022-10-04 20:02:53
LABEL SEQUENCE CONTENT Dn/Up
QD535106:33 50.5▼ Dn
QC454406:25▼ Dn
2U4442LOWW 300950Z 31011KT 280V350 9999 FEW040 14/05 Q1019 NOSIG▲ Up
2S3849LOWW▼ Dn
2U4230LOWW 300950Z 31011KT 280V350 9999 FEW040 14/05 Q1019 NOSIG▲ Up
2S3748LOWW▼ Dn
464505/OV VVO/265/60 /TM 2307 /FL350 /TP B744 /SK BKN /TA -49 /WV 219/66 /RM NONE▼ Dn
5R4304DASUG 22:59z FL350 YVO 23:13z VBS M0.86 93.5 -14 216/45 RW29 07:05z▼ Dn
DM484303DASUG 22:59z FL350 YVO 23:13z VBS M0.86 93.5 -14 216/45 RW29 07:05z▼ Dn
UM795517NO MATCHING FLIGHT DATA AVAILABLE FROM ANSP▲ Up
UM255517REQUESTING OCEANIC CLRNC CT CDQX CS DL923 EP ALLRY FL 350 ETA 01:25 SPD 295▼ Dn
465214/OV XXX /TM 2214 /FL350 /TP B744 /SK OVC /TA -52 /WV 309/73 /RM HELLO▼ Dn
5Z491120 MAR 20 22:12:06z / FLT DECK GOOD / ACF POS GOOD / GRND SERVICES GOOD / MAINT GOOD▼ Dn
UM744316PROCEED DIRECT TO SSM▲ Up
DM224306REQUEST DIRECT TO SSM DUE TO A/C PERF▼ Dn
UM204013CLEARED TO FL 350▲ Up
DM64003REQUEST FL 350 DUE TO A/C PERF▼ Dn
UM204801CLIMB TO 350▲ Up
UM133811AT 48 PAST THE HOUR EXPECT CLIMB TO 350▲ Up
DM67H3801WHEN CAN WE EXPECT CLIMB TO FL 350▼ Dn
QB305521:53▼ Dn
QA144021:37 244.4▼ Dn
A70836CLEARANCE AVAIL WITHIN 0:25 OF EDT▲ Up
B30836KMSP LOWW LHR923 N675NW ▼ Dn
2U2949KMSP 300153Z 34005KT 10SM SCT040 SCT250 17/07 A3014 RMK AO2 SLP208 FU PLUMES NW-N T01670067▲ Up
2S0634KMSP▼ Dn
A70435CLEARANCE AVAIL WITHIN 0:25 OF EDT▲ Up
B30435KMSP LOWW LHR923 N675NW ▼ Dn
A70129CLEARANCE AVAIL WITHIN 0:25 OF EDT▲ Up
B30129KMSP LOWW LHR923 N675NW ▼ Dn
Q00028[LINK ACK]▲ Up
Q00028[LINK TEST]▼ Dn
QA491821:10 0▼ Dn


AIRCRAFT HISTORY
FLIGHT DATE FLIGHT NO. ORIGIN DESTINATION CLEARED ROUTE BLOCK TIME FLIGHT TIME FUEL USED PILOT
2021-10-22DAL1022LFPG KSEA LFPG ATREX VESAN RATUK SOVAT SANDY STOAT MOGLI BETAX MAMUL HALIF ABKAT TLA GOW ERAKA 6020N 6130N 6240N 6250N MAXAR RODBO N5880 YGX YTH YVC ESKIE ROMRA VIDRI YVR ROESH MARNR BOANE NEHOS GRIFY KENMO RW16L10.1 hrs10 hrs204,295 lbRandall Smith
2020-08-19DAL257WSSS LFPG WSSS VMR BIKTA PU90 PADLI VPK GUGIT VKB GOLUD RAN PADET OBMOG LALAT SADUS MEPEL DABEN BUBKO BUMRO KAKID MAVLA AGROM DADSO LAPAN DOMET IGONA BUTOP GUGAL NITIV JHANG LEBIB DI REGET DOBAT MESRA PATOX NEVIV VUVEN PAGMA LEMOD NINOP ABDAN BODBA KEKAL ABEKO BIBIM MAHYM TABAB MARAL BISNA BALIP MKL UNEDI GOTIK NEGUB RISKA BADKO ALEGI GIRTI TESMI LEGNA ROTIM UH INSER OLGIN TOKMU DOTEL REPLI ETOKA KOSNA NIROV KOROP NALAD GORKU DIBED VAREN ATKEK NATIX LUXAR GEVNA MOKMU XEVBA SKAVI USALO NOMIX LAVPI PADKA SOPAV RIBSI ETUDA DOBIL PEMUR BEKVI LETNA OKL EROKA BALTU DONAD OKG ABERU KULOK LONLI SULUS KOMIB RASPU OSBIT LOHRE ESATI BOMBI FFM RUDUS OBIGA ADENU NOSPA VEDUS LFPG12.3 hrs12 hrs320,246 lbMichael Backes
2020-06-03DAL603LOWW WSSS LOWW ADAMA MALBE IVF GOTRA OTRAK TAKET REPLI DOTEL TOKMU OLGIN INSER UH ROTIM LEGNA TESMI GIRTI ALEGI BADKO RISKA NEGUB GOTIK UNEDI MKL BALIP BISNA MARAL TABAB MAHYM BIBIM ABEKO KEKAL BODBA ABDAN NINOP LEMOD PAGMA VUVEN NEVIV PATOX MESRA DOBAT REGET DI LEBIB JHANG NITIV GUGAL BUTOP IGONA DOMET LAPAN DADSO AGROM MAVLA KAKID BUMRO BUBKO DABEN MEPEL SADUS LALAT OBMOG IKULA MUDMA UPSAB PUT REBED NUTGU DALAN VPL ANDOK VILAT VIH DAKUS VBA VKL DUMOK BATAR OGAKO TOPOR ARAMA BOBAG SAMKO BTM DOVAN BIPOP IDVAS RW20R11 hrs10.7 hrs261,600 lbRandall Smith
2020-05-30DAL322KMSP LOWW KMSP SSM DASUG YVO VBS BAREE ALLRY 5150N 5140N 5230N 5220N LIMRI XETBO EVRIN NEKAP LAZTU ABDUK NUMPO PUPJO INLAK KONAN KOK MATUG GUBAX BOREP ENITA ETVIS ABUDO BUDEX LOWW8.9 hrs8.6 hrs193,842 lbMark Adeane
2020-04-18DAL322KJFK KMSP KJFK GAYEL MSLIN STOMP BUFFY CFB VIEEW KELIE WOZEE NOSIK ZOHAN CEWDA KMSP3.1 hrs2.7 hrs58,827 lbAaron Buchanan